Time;durP1;ratioP1;P1;durP2;ratioP2;P2;SDS_P1;SDS_P2;PMS_P1;PMS_P2;Temp;Humidity;BMP_temperature;BMP_pressure;BME280_temperature;BME280_humidity;BME280_pressure;Samples;Min_cycle;Max_cycle;Signal;HPM_P1;HPM_P2
2022/04/11 00:02:17;;;;;;;4.72;4.30;;;4.30;63.70;;;;;;5027205;28;20579;-80
2022/04/11 00:04:44;;;;;;;4.95;4.45;;;4.20;64.10;;;;;;5023378;28;20208;-81
2022/04/11 00:07:11;;;;;;;7.93;4.10;;;4.10;64.90;;;;;;5020486;28;20211;-81
2022/04/11 00:09:38;;;;;;;6.53;4.22;;;4.10;65.40;;;;;;5020487;28;20234;-81
2022/04/11 00:12:06;;;;;;;7.15;4.18;;;4.10;65.70;;;;;;5020465;28;20212;-81
2022/04/11 00:14:33;;;;;;;5.65;4.43;;;4.10;65.50;;;;;;5023662;28;20294;-80
2022/04/11 00:17:00;;;;;;;5.78;4.63;;;4.10;65.50;;;;;;5029029;28;20239;-80
2022/04/11 00:19:29;;;;;;;6.80;4.75;;;4.00;65.80;;;;;;5035341;28;20227;-81
2022/04/11 00:21:56;;;;;;;6.78;4.63;;;4.00;66.40;;;;;;5036799;28;20223;-82
2022/04/11 00:24:23;;;;;;;4.95;4.47;;;3.90;66.10;;;;;;5021653;28;20212;-81
2022/04/11 00:26:49;;;;;;;5.70;3.97;;;3.90;66.30;;;;;;5018788;28;20221;-81
2022/04/11 00:29:16;;;;;;;6.85;4.10;;;4.00;66.40;;;;;;5018786;28;20227;-81
2022/04/11 00:31:44;;;;;;;4.43;3.90;;;3.90;66.20;;;;;;5019461;28;20227;-81
2022/04/11 00:34:11;;;;;;;5.00;3.78;;;3.90;66.30;;;;;;5018870;28;20618;-81
2022/04/11 00:36:39;;;;;;;5.70;4.07;;;3.90;66.50;;;;;;5030313;28;20219;-81
2022/04/11 00:39:06;;;;;;;5.65;4.43;;;3.90;66.00;;;;;;5056781;28;20249;-81
2022/04/11 00:41:33;;;;;;;4.57;4.13;;;3.90;66.00;;;;;;5049252;28;20258;-81
2022/04/11 00:44:00;;;;;;;4.25;3.90;;;4.00;65.10;;;;;;5032226;28;20299;-82
2022/04/11 00:46:27;;;;;;;6.05;4.15;;;4.00;64.20;;;;;;5033988;28;20199;-81
2022/04/11 00:48:54;;;;;;;5.30;4.55;;;4.00;63.50;;;;;;5037304;28;20220;-81
2022/04/11 00:51:24;;;;;;;5.68;4.45;;;4.00;63.50;;;;;;5030902;28;20306;-82
2022/04/11 00:53:54;;;;;;;4.47;3.75;;;4.00;63.50;;;;;;5030606;28;20711;-81
2022/04/11 00:56:21;;;;;;;4.85;4.22;;;4.00;63.50;;;;;;5024564;28;20207;-81
2022/04/11 00:58:49;;;;;;;4.88;4.47;;;4.00;63.50;;;;;;5028061;28;20223;-81
2022/04/11 01:01:17;;;;;;;5.50;4.20;;;4.00;63.50;;;;;;5045243;28;20227;-82
2022/04/11 01:03:44;;;;;;;7.95;4.43;;;4.10;62.20;;;;;;5040784;28;20253;-80
2022/04/11 01:06:11;;;;;;;5.40;3.72;;;4.10;62.20;;;;;;5050035;28;20218;-83
2022/04/11 01:08:39;;;;;;;5.68;4.25;;;4.10;61.80;;;;;;5042675;28;20292;-82
2022/04/11 01:11:07;;;;;;;4.97;3.85;;;4.10;62.10;;;;;;5024595;28;20237;-82
2022/04/11 01:13:35;;;;;;;4.25;3.72;;;4.20;60.90;;;;;;5027609;28;20210;-80
2022/04/11 01:16:04;;;;;;;4.00;3.50;;;4.30;60.30;;;;;;5049260;28;20234;-81
2022/04/11 01:18:33;;;;;;;5.43;3.97;;;4.30;59.30;;;;;;5050915;28;20253;-82
2022/04/11 01:21:00;;;;;;;4.68;3.42;;;4.40;58.50;;;;;;5054128;28;20211;-81
2022/04/11 01:23:29;;;;;;;6.45;3.70;;;4.40;59.10;;;;;;5050025;28;20192;-83
2022/04/11 01:25:58;;;;;;;4.72;4.25;;;4.40;57.30;;;;;;5037007;28;20202;-82
2022/04/11 01:28:28;;;;;;;6.65;3.85;;;4.50;57.30;;;;;;5041193;28;20203;-82
2022/04/11 01:30:56;;;;;;;5.35;3.70;;;4.50;57.40;;;;;;5057105;28;20243;-81
2022/04/11 01:33:26;;;;;;;6.55;3.63;;;4.50;57.60;;;;;;5045945;28;20190;-81
2022/04/11 01:35:53;;;;;;;3.75;3.20;;;4.50;57.10;;;;;;5037669;28;20206;-81
2022/04/11 01:38:20;;;;;;;4.07;3.50;;;4.50;56.90;;;;;;5037905;28;20276;-82
2022/04/11 01:40:49;;;;;;;3.60;3.30;;;4.50;56.70;;;;;;5034664;28;20250;-80
2022/04/11 01:43:17;;;;;;;4.22;3.80;;;4.50;56.40;;;;;;5042460;28;20207;-81
2022/04/11 01:45:44;;;;;;;5.45;3.72;;;4.60;56.10;;;;;;5042691;28;20203;-81
2022/04/11 01:48:11;;;;;;;3.85;3.38;;;4.60;55.70;;;;;;5040354;28;20262;-81
2022/04/11 01:50:38;;;;;;;4.43;3.30;;;4.60;55.00;;;;;;5029327;28;20215;-82
2022/04/11 01:53:06;;;;;;;8.73;4.10;;;4.70;55.10;;;;;;5021209;28;20212;-80
2022/04/11 01:55:34;;;;;;;4.50;3.40;;;4.70;55.30;;;;;;5023301;28;20200;-81
2022/04/11 01:58:02;;;;;;;6.30;4.00;;;4.70;54.30;;;;;;5026527;28;20291;-81
2022/04/11 02:00:29;;;;;;;4.80;4.28;;;4.80;54.10;;;;;;5038640;28;20207;-82
2022/04/11 02:02:56;;;;;;;4.03;3.40;;;4.80;54.20;;;;;;5048836;28;20226;-81
2022/04/11 02:05:23;;;;;;;3.30;3.00;;;4.80;53.90;;;;;;5048702;28;20203;-81
2022/04/11 02:07:50;;;;;;;5.13;3.05;;;4.80;53.20;;;;;;5049423;28;20227;-82
2022/04/11 02:10:17;;;;;;;3.85;3.55;;;4.90;52.70;;;;;;5047095;28;20199;-82
2022/04/11 02:12:44;;;;;;;4.60;3.03;;;4.90;53.20;;;;;;5053007;28;20326;-81
2022/04/11 02:15:12;;;;;;;5.88;3.45;;;4.80;53.40;;;;;;5035609;28;20326;-81
2022/04/11 02:17:39;;;;;;;4.00;3.60;;;4.70;55.10;;;;;;5026958;28;20224;-82
2022/04/11 02:20:08;;;;;;;5.10;3.63;;;4.60;55.00;;;;;;5046360;28;20238;-81
2022/04/11 02:22:50;;;;;;;9.32;4.25;;;4.50;56.10;;;;;;5057971;28;20215;-81
2022/04/11 02:25:19;;;;;;;5.70;3.80;;;4.50;57.00;;;;;;5058663;28;20214;-82
2022/04/11 02:27:46;;;;;;;5.07;3.80;;;4.40;57.70;;;;;;5059786;28;20207;-80
2022/04/11 02:30:15;;;;;;;5.78;3.90;;;4.40;57.60;;;;;;5058980;28;20187;-81
2022/04/11 02:32:42;;;;;;;5.55;4.15;;;4.30;58.10;;;;;;5053210;28;20239;-81
2022/04/11 02:35:10;;;;;;;4.03;3.42;;;4.30;58.70;;;;;;5057704;28;20217;-81
2022/04/11 02:37:37;;;;;;;6.03;4.03;;;4.30;58.90;;;;;;5056599;28;20223;-81
2022/04/11 02:40:07;;;;;;;6.40;3.85;;;4.40;57.80;;;;;;5050614;28;20234;-81
2022/04/11 02:42:34;;;;;;;6.70;3.60;;;4.40;57.60;;;;;;5039628;28;20237;-82
2022/04/11 02:45:02;;;;;;;5.88;3.80;;;4.50;56.90;;;;;;5052466;28;20214;-81
2022/04/11 02:47:30;;;;;;;4.50;3.90;;;4.50;56.90;;;;;;5058659;28;20479;-81
2022/04/11 02:49:57;;;;;;;3.83;3.42;;;4.50;56.20;;;;;;5057715;28;20187;-81
2022/04/11 02:52:24;;;;;;;4.70;4.25;;;4.50;56.40;;;;;;5056994;28;20215;-82
2022/04/11 02:54:51;;;;;;;7.05;4.10;;;4.40;56.90;;;;;;5056180;28;20238;-81
2022/04/11 02:57:18;;;;;;;6.93;3.97;;;4.40;57.40;;;;;;5054908;28;20234;-82
2022/04/11 02:59:44;;;;;;;4.82;4.25;;;4.40;57.50;;;;;;5042618;28;20235;-81
2022/04/11 03:02:11;;;;;;;5.53;4.50;;;4.40;57.60;;;;;;5031990;28;20291;-81
2022/04/11 03:04:40;;;;;;;5.80;4.05;;;4.40;58.10;;;;;;5032738;28;20212;-81
2022/04/11 03:07:07;;;;;;;5.72;4.60;;;4.40;57.30;;;;;;5033377;28;20200;-82
2022/04/11 03:09:34;;;;;;;6.50;4.53;;;4.40;57.90;;;;;;5047439;28;20251;-81
2022/04/11 03:12:01;;;;;;;7.50;5.00;;;4.30;58.40;;;;;;5054993;28;20191;-81
2022/04/11 03:14:28;;;;;;;5.95;5.13;;;4.30;58.80;;;;;;5054684;28;20239;-80
2022/04/11 03:16:55;;;;;;;6.53;4.93;;;4.20;59.20;;;;;;5053125;28;20218;-80
2022/04/11 03:19:22;;;;;;;7.05;5.15;;;4.30;60.00;;;;;;5051356;28;20272;-80
2022/04/11 03:21:50;;;;;;;7.40;5.55;;;4.20;59.80;;;;;;5054439;28;20295;-82
2022/04/11 03:24:17;;;;;;;8.27;5.80;;;4.20;59.90;;;;;;5053658;28;20640;-81
2022/04/11 03:26:44;;;;;;;6.80;5.28;;;4.10;60.10;;;;;;5053208;28;20757;-81
2022/04/11 03:29:11;;;;;;;8.10;5.40;;;4.10;60.30;;;;;;5031603;28;20581;-82
2022/04/11 03:31:38;;;;;;;7.80;5.28;;;4.10;60.20;;;;;;5034299;28;20192;-81
2022/04/11 03:34:05;;;;;;;6.85;5.50;;;4.20;60.20;;;;;;5055825;28;20199;-80
2022/04/11 03:36:32;;;;;;;6.57;5.70;;;4.20;60.20;;;;;;5041155;28;20203;-81
2022/04/11 03:39:00;;;;;;;6.80;5.88;;;4.10;60.30;;;;;;5039529;28;20282;-81
2022/04/11 03:41:27;;;;;;;9.60;5.78;;;4.20;60.00;;;;;;5052353;28;20261;-81
2022/04/11 03:43:54;;;;;;;7.15;5.93;;;4.10;60.50;;;;;;5041096;28;20396;-82
2022/04/11 03:46:21;;;;;;;6.80;6.10;;;4.00;61.00;;;;;;5032782;28;20239;-81
2022/04/11 03:48:48;;;;;;;8.32;6.70;;;4.00;61.20;;;;;;5034631;28;20294;-82
2022/04/11 03:51:15;;;;;;;6.80;6.10;;;4.00;61.30;;;;;;5035279;28;20220;-81
2022/04/11 03:53:42;;;;;;;8.88;7.28;;;4.00;61.70;;;;;;5031927;28;20246;-81
2022/04/11 03:56:12;;;;;;;11.07;7.45;;;3.90;62.20;;;;;;5039280;28;20286;-81
2022/04/11 03:58:39;;;;;;;9.95;6.63;;;3.90;62.30;;;;;;5037944;28;20258;-81
2022/04/11 04:01:06;;;;;;;10.27;7.07;;;3.90;62.40;;;;;;5023595;28;20240;-81
2022/04/11 04:03:33;;;;;;;9.00;7.20;;;3.80;63.30;;;;;;5031147;28;20286;-81
2022/04/11 04:06:00;;;;;;;7.47;6.78;;;3.80;63.30;;;;;;5043005;28;20215;-80
2022/04/11 04:08:28;;;;;;;7.68;6.70;;;3.80;63.30;;;;;;5047128;28;20235;-81
2022/04/11 04:10:55;;;;;;;9.70;7.30;;;3.80;63.30;;;;;;5039396;28;20203;-80
2022/04/11 04:13:24;;;;;;;8.90;7.18;;;3.70;64.00;;;;;;5038859;28;20667;-80
2022/04/11 04:15:51;;;;;;;9.25;8.32;;;3.70;64.40;;;;;;5038700;28;20245;-80
2022/04/11 04:18:18;;;;;;;8.57;7.68;;;3.70;65.50;;;;;;5039139;28;20313;-81
2022/04/11 04:20:45;;;;;;;10.05;8.50;;;3.60;65.70;;;;;;5039524;28;20234;-81
2022/04/11 04:23:12;;;;;;;9.10;7.55;;;3.60;66.10;;;;;;5040054;28;20266;-81
2022/04/11 04:25:39;;;;;;;8.63;7.75;;;3.50;66.80;;;;;;5040040;28;20215;-81
2022/04/11 04:28:07;;;;;;;11.40;9.00;;;3.50;67.50;;;;;;5033361;28;20220;-81
2022/04/11 04:30:36;;;;;;;11.82;7.90;;;3.40;68.10;;;;;;5021026;28;20218;-81
2022/04/11 04:33:03;;;;;;;12.13;8.43;;;3.40;68.00;;;;;;5030029;28;20207;-80
2022/04/11 04:35:30;;;;;;;10.95;9.38;;;3.40;68.50;;;;;;5041015;28;20207;-81
2022/04/11 04:37:57;;;;;;;10.20;8.80;;;3.30;69.40;;;;;;5036159;28;20219;-81
2022/04/11 04:40:24;;;;;;;13.30;9.57;;;3.30;69.40;;;;;;5029232;28;20211;-83
2022/04/11 04:42:51;;;;;;;9.50;8.48;;;3.30;69.90;;;;;;5031045;28;20266;-81
2022/04/11 04:45:19;;;;;;;12.68;9.20;;;3.30;70.10;;;;;;5019068;28;20212;-81
2022/04/11 04:47:48;;;;;;;12.25;9.27;;;3.30;70.00;;;;;;5018989;28;20259;-80
2022/04/11 04:50:15;;;;;;;12.07;9.00;;;3.30;70.60;;;;;;5017687;28;20686;-81
2022/04/11 04:52:42;;;;;;;12.32;8.80;;;3.20;70.60;;;;;;5018789;28;20262;-81
2022/04/11 04:55:10;;;;;;;13.55;8.70;;;3.20;70.60;;;;;;5018510;28;20227;-81
2022/04/11 04:57:37;;;;;;;11.48;9.38;;;3.30;70.60;;;;;;5023515;28;20249;-81
2022/04/11 05:00:07;;;;;;;12.10;9.32;;;3.30;69.90;;;;;;5022566;28;20207;-81
2022/04/11 05:02:37;;;;;;;10.80;9.02;;;3.30;69.70;;;;;;5025333;28;20310;-80
2022/04/11 05:05:09;;;;;;;10.30;8.65;;;3.20;69.60;;;;;;5022130;28;20291;-81
2022/04/11 05:07:36;;;;;;;10.20;8.77;;;3.30;69.40;;;;;;5028764;28;20237;-82
2022/04/11 05:10:04;;;;;;;9.65;7.97;;;3.30;69.50;;;;;;5038855;28;20218;-79
2022/04/11 05:12:39;;;;;;;13.50;9.05;;;3.30;69.10;;;;;;5038241;28;20207;-80
2022/04/11 05:15:06;;;;;;;10.05;8.13;;;3.30;68.50;;;;;;5039045;28;20289;-81
2022/04/11 05:17:33;;;;;;;12.02;9.70;;;3.40;68.00;;;;;;5038392;28;20593;-82
2022/04/11 05:20:01;;;;;;;15.23;8.77;;;3.50;67.80;;;;;;5039059;28;20738;-81
2022/04/11 05:22:29;;;;;;;11.45;8.10;;;3.60;66.60;;;;;;5039498;28;20231;-81
2022/04/11 05:24:56;;;;;;;13.50;8.40;;;3.80;64.50;;;;;;5039441;28;20211;-81
2022/04/11 05:27:23;;;;;;;13.90;7.50;;;4.10;63.50;;;;;;5035401;28;20204;-81
2022/04/11 05:29:50;;;;;;;9.32;7.80;;;4.20;61.80;;;;;;5027185;28;20195;-81
2022/04/11 05:32:17;;;;;;;7.97;7.18;;;4.40;60.60;;;;;;5036530;28;20223;-86
2022/04/11 05:34:44;;;;;;;10.40;7.50;;;4.60;59.60;;;;;;5057310;28;20205;-84
2022/04/11 05:37:12;;;;;;;10.57;7.75;;;4.90;57.60;;;;;;5057554;28;20191;-84
2022/04/11 05:39:41;;;;;;;9.20;6.75;;;5.00;55.90;;;;;;5057325;28;20225;-85
2022/04/11 05:42:08;;;;;;;10.98;6.53;;;5.50;55.80;;;;;;5057252;28;20218;-83
2022/04/11 05:44:35;;;;;;;7.65;6.85;;;5.70;53.70;;;;;;5057245;28;20287;-85
2022/04/11 05:47:03;;;;;;;9.88;7.00;;;5.50;53.30;;;;;;5055935;28;20234;-80
2022/04/11 05:49:30;;;;;;;7.50;6.68;;;5.60;53.10;;;;;;5021036;28;20235;-81
2022/04/11 05:51:57;;;;;;;7.90;6.18;;;5.70;52.30;;;;;;5025413;28;20203;-80
2022/04/11 05:54:24;;;;;;;11.70;7.82;;;5.60;52.10;;;;;;5039196;28;20231;-79
2022/04/11 05:56:52;;;;;;;7.53;6.68;;;5.80;53.00;;;;;;5037240;28;20213;-79
2022/04/11 05:59:19;;;;;;;11.57;6.80;;;6.10;51.60;;;;;;5042281;28;20223;-77
2022/04/11 06:01:46;;;;;;;7.90;6.97;;;6.40;50.40;;;;;;5051120;28;20290;-78
2022/04/11 06:04:13;;;;;;;8.85;6.45;;;6.50;48.60;;;;;;5039882;28;20227;-79
2022/04/11 06:06:40;;;;;;;7.85;7.05;;;6.50;48.90;;;;;;5039389;28;20214;-78
2022/04/11 06:09:07;;;;;;;9.90;7.00;;;6.70;47.60;;;;;;5042483;28;20238;-79
2022/04/11 06:11:34;;;;;;;8.13;7.32;;;6.40;48.40;;;;;;5041252;28;20211;-79
2022/04/11 06:14:02;;;;;;;9.13;7.25;;;6.10;49.70;;;;;;5020857;28;20262;-79
2022/04/11 06:16:29;;;;;;;10.20;7.03;;;6.10;49.70;;;;;;5019850;28;20208;-78
2022/04/11 06:18:57;;;;;;;6.90;6.20;;;6.00;50.20;;;;;;5036308;28;20294;-78
2022/04/11 06:21:24;;;;;;;8.77;6.70;;;5.90;50.20;;;;;;5040309;28;20246;-78
2022/04/11 06:23:51;;;;;;;9.20;7.15;;;5.90;50.70;;;;;;5028537;28;20220;-79
2022/04/11 06:26:18;;;;;;;9.25;7.57;;;5.80;51.20;;;;;;5024932;28;20207;-79
2022/04/11 06:28:45;;;;;;;8.80;7.53;;;5.60;51.50;;;;;;5033690;28;20313;-80
2022/04/11 06:31:14;;;;;;;11.98;6.57;;;5.60;52.10;;;;;;5026889;28;20211;-79
2022/04/11 06:33:42;;;;;;;7.85;7.00;;;5.70;51.50;;;;;;5026292;28;20208;-80
2022/04/11 06:36:09;;;;;;;14.20;7.65;;;5.80;51.30;;;;;;5039096;28;20231;-81
2022/04/11 06:38:37;;;;;;;8.05;6.90;;;5.80;51.10;;;;;;5046323;28;20251;-81
2022/04/11 06:41:04;;;;;;;8.40;6.30;;;5.90;51.30;;;;;;5051469;28;20276;-80
2022/04/11 06:43:31;;;;;;;7.75;6.88;;;5.90;50.90;;;;;;5049049;28;20254;-81
2022/04/11 06:45:58;;;;;;;12.20;6.35;;;6.00;50.20;;;;;;5041340;28;20210;-81
2022/04/11 06:48:26;;;;;;;7.25;6.22;;;6.00;49.80;;;;;;5047706;28;20246;-82
2022/04/11 06:50:54;;;;;;;8.88;6.97;;;6.10;50.10;;;;;;5048774;28;20191;-81
2022/04/11 06:53:21;;;;;;;13.07;7.20;;;6.20;49.30;;;;;;5050945;28;20199;-81
2022/04/11 06:55:48;;;;;;;9.88;5.93;;;6.30;49.20;;;;;;5046281;28;20200;-81
2022/04/11 06:58:15;;;;;;;7.25;6.15;;;6.40;49.30;;;;;;5027089;28;20293;-81
2022/04/11 07:00:42;;;;;;;9.38;6.75;;;6.50;48.30;;;;;;5026445;28;20196;-80
2022/04/11 07:03:09;;;;;;;10.07;6.57;;;6.60;48.40;;;;;;5032774;28;20212;-80
2022/04/11 07:05:38;;;;;;;8.73;6.43;;;6.70;47.70;;;;;;5035493;28;20315;-80
2022/04/11 07:08:06;;;;;;;7.63;6.10;;;6.70;47.40;;;;;;5055760;28;20227;-79
2022/04/11 07:10:33;;;;;;;6.82;5.90;;;6.90;47.60;;;;;;5056959;28;20203;-79
2022/04/11 07:13:01;;;;;;;7.28;5.65;;;7.00;47.60;;;;;;5037548;28;20204;-79
2022/04/11 07:15:27;;;;;;;7.63;6.20;;;7.10;47.70;;;;;;5034610;28;20239;-77
2022/04/11 07:17:54;;;;;;;10.68;6.28;;;7.20;46.00;;;;;;5036597;28;20291;-78
2022/04/11 07:20:21;;;;;;;10.13;5.90;;;7.30;45.70;;;;;;5038138;28;20267;-78
2022/04/11 07:22:50;;;;;;;6.97;5.85;;;7.50;45.60;;;;;;5034859;28;20223;-80
2022/04/11 07:25:18;;;;;;;11.13;5.88;;;7.60;45.10;;;;;;5036995;28;20234;-78
2022/04/11 07:27:44;;;;;;;6.47;5.85;;;7.70;44.30;;;;;;5039837;28;20276;-77
2022/04/11 07:30:12;;;;;;;9.43;5.95;;;7.80;44.20;;;;;;5052986;28;20207;-78
2022/04/11 07:32:39;;;;;;;8.02;5.55;;;7.90;43.60;;;;;;5036924;28;20208;-79
2022/04/11 07:35:07;;;;;;;7.07;5.55;;;8.10;42.70;;;;;;5047844;28;20195;-76
2022/04/11 07:37:34;;;;;;;5.20;4.10;;;8.30;42.40;;;;;;5056134;28;20222;-79
2022/04/11 07:40:03;;;;;;;5.05;4.55;;;8.40;42.00;;;;;;5054493;28;20204;-81
2022/04/11 07:42:30;;;;;;;7.18;4.70;;;8.50;41.20;;;;;;5051329;28;20278;-80
2022/04/11 07:44:57;;;;;;;7.15;5.70;;;8.60;41.60;;;;;;5051176;28;20226;-80
2022/04/11 07:47:24;;;;;;;5.10;4.40;;;8.90;41.40;;;;;;5032229;28;20267;-78
2022/04/11 07:49:51;;;;;;;5.97;4.22;;;9.00;39.60;;;;;;5033900;28;20267;-81
2022/04/11 07:52:18;;;;;;;5.50;4.57;;;9.20;39.80;;;;;;5038419;28;20242;-81
2022/04/11 07:54:45;;;;;;;6.57;4.70;;;9.20;39.80;;;;;;5053559;28;20268;-80
2022/04/11 07:57:13;;;;;;;6.45;4.55;;;9.20;39.80;;;;;;5031220;28;20235;-77
2022/04/11 07:59:41;;;;;;;5.05;4.38;;;9.50;40.10;;;;;;5027445;28;20207;-78
2022/04/11 08:02:08;;;;;;;4.85;4.10;;;9.60;38.80;;;;;;5035262;28;20196;-78
2022/04/11 08:04:35;;;;;;;5.55;4.07;;;9.70;38.00;;;;;;5039017;28;20235;-78
2022/04/11 08:07:02;;;;;;;4.55;4.10;;;9.90;38.00;;;;;;5038548;28;20192;-76
2022/04/11 08:09:30;;;;;;;5.70;4.53;;;10.10;35.70;;;;;;5038423;28;20215;-79
2022/04/11 08:11:57;;;;;;;5.03;3.50;;;10.00;35.90;;;;;;5038664;28;20258;-80
2022/04/11 08:14:25;;;;;;;5.15;4.32;;;10.30;35.70;;;;;;5038497;28;20196;-78
2022/04/11 08:16:53;;;;;;;5.28;3.90;;;10.50;34.00;;;;;;5038544;28;20195;-80
2022/04/11 08:19:19;;;;;;;4.05;3.65;;;10.50;33.10;;;;;;5047280;28;20211;-80
2022/04/11 08:21:46;;;;;;;4.88;3.80;;;10.40;32.10;;;;;;5041191;28;20240;-83
2022/04/11 08:24:13;;;;;;;5.85;3.60;;;10.50;34.30;;;;;;5038268;28;20227;-76
2022/04/11 08:26:40;;;;;;;3.70;3.40;;;10.60;32.00;;;;;;5039065;28;20220;-78
2022/04/11 08:29:07;;;;;;;5.10;3.97;;;10.70;31.10;;;;;;5045236;28;20257;-78
2022/04/11 08:31:36;;;;;;;3.88;3.40;;;10.80;31.60;;;;;;5045343;28;20223;-80
2022/04/11 08:34:03;;;;;;;3.65;3.00;;;10.90;30.30;;;;;;5038736;28;20199;-78
2022/04/11 08:36:30;;;;;;;3.60;3.25;;;10.70;31.40;;;;;;5035901;28;20184;-78
2022/04/11 08:38:57;;;;;;;5.50;3.47;;;11.00;31.20;;;;;;5044322;28;20207;-78
2022/04/11 08:41:27;;;;;;;6.35;3.55;;;11.20;31.60;;;;;;5052880;28;20198;-81
2022/04/11 08:43:56;;;;;;;3.22;2.90;;;11.30;30.70;;;;;;5053024;28;20222;-79
2022/04/11 08:46:26;;;;;;;3.55;3.15;;;11.40;30.70;;;;;;5052070;28;20238;-80
2022/04/11 08:48:55;;;;;;;3.22;2.92;;;11.60;30.90;;;;;;5040008;28;20243;-81
2022/04/11 08:51:22;;;;;;;4.20;3.40;;;11.70;29.80;;;;;;5033246;28;20227;-79
2022/04/11 08:53:49;;;;;;;3.45;3.15;;;11.90;29.20;;;;;;5041480;28;20271;-79
2022/04/11 08:56:16;;;;;;;6.93;3.33;;;11.40;29.60;;;;;;5050845;28;20214;-81
2022/04/11 08:58:42;;;;;;;4.03;3.10;;;11.60;29.70;;;;;;5051270;28;20291;-80
2022/04/11 09:01:09;;;;;;;3.90;3.53;;;11.40;29.00;;;;;;5045239;28;20303;-81
2022/04/11 09:03:37;;;;;;;3.63;3.20;;;11.40;28.60;;;;;;5051623;28;20219;-80
2022/04/11 09:06:09;;;;;;;5.85;3.10;;;11.50;28.90;;;;;;5035131;28;20272;-82
2022/04/11 09:08:41;;;;;;;2.85;2.60;;;11.70;29.40;;;;;;5034733;28;20215;-81
2022/04/11 09:11:09;;;;;;;3.10;2.80;;;12.00;28.60;;;;;;5034214;28;20218;-80
2022/04/11 09:13:56;;;;;;;4.00;3.45;;;12.10;28.90;;;;;;5043909;28;20234;-80
2022/04/11 09:16:24;;;;;;;3.17;2.90;;;12.20;28.30;;;;;;5052007;28;20198;-79
2022/04/11 09:18:53;;;;;;;3.15;2.80;;;12.40;28.50;;;;;;5052258;28;20239;-79
2022/04/11 09:21:22;;;;;;;5.93;3.05;;;12.40;28.20;;;;;;5053721;28;20263;-78
2022/04/11 09:23:50;;;;;;;4.07;2.95;;;12.50;28.10;;;;;;5050314;28;20215;-79
2022/04/11 09:26:19;;;;;;;3.25;2.95;;;12.90;27.40;;;;;;5048365;28;20212;-80
2022/04/11 09:29:00;;;;;;;4.80;3.38;;;13.10;27.40;;;;;;5052487;28;20246;-78
2022/04/11 09:31:28;;;;;;;4.65;2.97;;;12.60;27.80;;;;;;5034537;28;20227;-80
2022/04/11 09:33:55;;;;;;;3.25;2.95;;;12.90;28.30;;;;;;5043434;28;20283;-80
2022/04/11 09:36:24;;;;;;;4.82;2.72;;;13.10;26.80;;;;;;5034955;28;20221;-80
2022/04/11 09:38:59;;;;;;;4.25;2.95;;;12.80;26.40;;;;;;5042879;28;20231;-81
2022/04/11 09:41:30;;;;;;;6.38;3.58;;;12.80;27.60;;;;;;5047265;28;20511;-81
2022/04/11 09:43:57;;;;;;;4.72;3.30;;;12.90;27.20;;;;;;5043379;28;20211;-79
2022/04/11 09:46:24;;;;;;;4.55;3.33;;;13.10;27.50;;;;;;5052930;28;20213;-79
2022/04/11 09:48:54;;;;;;;4.22;3.83;;;13.30;26.40;;;;;;5044767;28;20238;-79
2022/04/11 09:54:35;;;;;;;7.15;3.55;;;13.40;27.00;;;;;;5047282;28;20196;-80
2022/04/11 09:57:14;;;;;;;4.95;3.90;;;13.20;26.80;;;;;;5054282;28;20215;-80
2022/04/11 09:59:43;;;;;;;3.60;3.30;;;12.90;27.70;;;;;;5051171;28;20207;-82
2022/04/11 10:02:11;;;;;;;4.82;3.70;;;13.10;27.10;;;;;;5040095;28;20225;-80
2022/04/11 10:04:39;;;;;;;3.33;3.10;;;13.20;25.60;;;;;;5041319;28;20227;-79
2022/04/11 10:07:11;;;;;;;4.50;3.00;;;13.30;26.50;;;;;;5044596;28;20254;-78
2022/04/11 10:09:43;;;;;;;4.57;3.05;;;13.60;26.70;;;;;;5041716;28;20215;-77
2022/04/11 10:12:14;;;;;;;5.07;3.88;;;13.50;26.50;;;;;;5044754;28;20207;-82
2022/04/11 10:17:29;;;;;;;6.95;4.00;;;13.30;27.40;;;;;;5028208;28;20200;-80
2022/04/11 10:19:58;;;;;;;4.05;3.15;;;13.50;27.30;;;;;;5025304;28;20208;-80
2022/04/11 10:22:28;;;;;;;4.88;3.42;;;13.40;27.00;;;;;;5029324;28;20223;-80
2022/04/11 10:25:05;;;;;;;6.20;3.78;;;13.70;26.70;;;;;;5032822;28;20234;-79
2022/04/11 10:27:32;;;;;;;6.45;3.45;;;13.60;26.90;;;;;;5043350;28;20191;-80
2022/04/11 10:30:03;;;;;;;5.07;2.93;;;14.00;26.70;;;;;;5041867;28;20207;-79
2022/04/11 10:35:08;;;;;;;4.00;3.20;;;14.30;24.90;;;;;;5089713;22;20234;-78
2022/04/11 10:38:07;;;;;;;4.07;3.70;;;13.90;24.50;;;;;;5061469;28;20451;-79
2022/04/11 10:40:37;;;;;;;6.18;3.42;;;13.80;26.10;;;;;;5065623;28;20634;-79
2022/04/11 10:43:16;;;;;;;6.73;3.20;;;13.80;26.80;;;;;;5076139;28;20203;-79
2022/04/11 10:45:56;;;;;;;3.85;3.00;;;14.20;25.70;;;;;;5067924;28;20466;-81
2022/04/11 10:49:05;;;;;;;5.43;3.33;;;14.10;24.60;;;;;;5174970;22;20236;-81
2022/04/11 10:51:32;;;;;;;3.35;3.10;;;14.30;24.80;;;;;;5072568;28;20424;-80
2022/04/11 10:54:17;;;;;;;4.30;3.65;;;14.20;25.00;;;;;;5064577;28;20345;-78
2022/04/11 10:56:59;;;;;;;3.97;2.70;;;14.30;25.20;;;;;;5064712;28;20202;-79
2022/04/11 10:59:27;;;;;;;3.27;2.97;;;14.50;24.90;;;;;;5064447;28;20461;-78
2022/04/11 11:01:59;;;;;;;4.90;2.90;;;14.80;25.10;;;;;;5068886;28;20441;-82
2022/04/11 11:04:32;;;;;;;3.73;3.37;;;14.60;24.50;;;;;;5066275;28;20524;-77
2022/04/11 11:07:25;;;;;;;3.30;2.65;;;14.40;24.50;;;;;;5060831;28;20463;-80
2022/04/11 11:10:00;;;;;;;3.17;2.87;;;14.70;24.80;;;;;;5059645;28;20582;-84
2022/04/11 11:12:28;;;;;;;4.15;2.58;;;15.10;23.40;;;;;;5050672;28;20454;-80
2022/04/11 11:14:56;;;;;;;5.80;3.07;;;15.40;22.60;;;;;;5042088;28;20195;-79
2022/04/11 11:17:56;;;;;;;3.67;2.90;;;15.50;22.80;;;;;;5041228;28;20531;-79
2022/04/11 11:20:23;;;;;;;4.70;3.23;;;15.00;23.60;;;;;;5043261;28;20511;-79
2022/04/11 11:23:21;;;;;;;5.23;3.30;;;15.10;23.80;;;;;;5043969;28;20458;-78
2022/04/11 11:25:49;;;;;;;2.83;2.63;;;14.70;23.60;;;;;;5046129;28;20438;-80
2022/04/11 11:28:19;;;;;;;3.40;3.10;;;15.00;23.00;;;;;;5048972;28;20481;-82
2022/04/11 11:30:46;;;;;;;5.63;2.70;;;15.30;22.50;;;;;;5056024;28;20461;-82
2022/04/11 11:33:15;;;;;;;4.03;2.73;;;15.50;22.30;;;;;;5060192;28;20476;-81
2022/04/11 11:35:50;;;;;;;5.57;3.53;;;15.70;22.50;;;;;;5062008;28;20456;-81
2022/04/11 11:38:22;;;;;;;3.60;2.73;;;15.30;22.20;;;;;;5065315;28;20469;-81
2022/04/11 11:40:55;;;;;;;4.63;2.80;;;15.20;23.40;;;;;;5060800;28;20422;-80
2022/04/11 11:43:24;;;;;;;4.17;2.70;;;15.60;22.30;;;;;;5059871;28;20534;-81
2022/04/11 11:45:51;;;;;;;5.10;3.27;;;15.60;21.60;;;;;;5054752;28;20444;-80
2022/04/11 11:48:22;;;;;;;3.00;2.70;;;15.60;21.60;;;;;;5038578;28;20569;-81
2022/04/11 11:50:50;;;;;;;3.00;2.23;;;15.80;21.70;;;;;;5046303;28;20455;-83
2022/04/11 11:53:17;;;;;;;5.70;2.70;;;16.00;21.50;;;;;;5058597;28;20492;-81
2022/04/11 11:55:58;;;;;;;3.87;2.60;;;15.90;21.50;;;;;;5060235;28;20427;-80
2022/04/11 11:58:36;;;;;;;3.03;2.73;;;15.70;21.20;;;;;;5058873;28;20492;-79
2022/04/11 12:01:04;;;;;;;2.57;2.37;;;15.70;20.60;;;;;;5057742;28;20424;-83
2022/04/11 12:06:25;;;;;;;4.60;2.40;;;16.00;20.70;;;;;;5055770;28;20532;-80
2022/04/11 12:08:59;;;;;;;2.17;1.97;;;16.10;20.50;;;;;;5046637;28;20472;-83
2022/04/11 12:11:27;;;;;;;5.83;3.00;;;15.90;20.20;;;;;;5045080;28;20442;-86
2022/04/11 12:14:03;;;;;;;4.20;2.80;;;16.10;20.30;;;;;;5062816;28;20470;-86
2022/04/11 12:16:31;;;;;;;7.80;3.07;;;16.10;19.70;;;;;;5072980;28;20411;-81
2022/04/11 12:19:00;;;;;;;7.67;2.70;;;16.00;20.00;;;;;;5070891;28;20493;-84
2022/04/11 12:21:35;;;;;;;5.37;1.90;;;16.00;19.10;;;;;;5070900;28;20463;-83
2022/04/11 12:24:03;;;;;;;3.03;2.30;;;15.90;17.70;;;;;;5065676;28;20466;-80
2022/04/11 12:26:32;;;;;;;2.80;2.00;;;16.10;19.60;;;;;;5053411;28;20457;-82
2022/04/11 12:29:08;;;;;;;3.40;2.17;;;16.10;19.90;;;;;;5055991;28;20508;-85
2022/04/11 12:31:36;;;;;;;3.23;1.93;;;16.10;19.40;;;;;;5052489;28;20480;-89
2022/04/11 12:34:11;;;;;;;2.23;2.03;;;16.30;18.00;;;;;;5058535;28;20461;-89
2022/04/11 12:36:38;;;;;;;3.73;2.47;;;16.40;18.10;;;;;;5058199;28;20441;-87
2022/04/11 12:39:12;;;;;;;4.17;2.53;;;16.20;18.60;;;;;;5058312;28;20514;-87
2022/04/11 12:41:44;;;;;;;4.77;2.73;;;16.10;18.90;;;;;;5057344;28;20454;-84
2022/04/11 12:44:16;;;;;;;4.40;2.63;;;16.20;18.70;;;;;;5053192;28;20468;-84
2022/04/11 12:46:45;;;;;;;2.70;2.37;;;16.40;19.20;;;;;;5059150;28;20457;-84
2022/04/11 12:49:13;;;;;;;3.87;2.53;;;16.40;18.10;;;;;;5058477;28;20455;-81
2022/04/11 12:51:40;;;;;;;3.83;2.70;;;16.70;18.60;;;;;;5058577;28;20453;-82
2022/04/11 12:54:10;;;;;;;2.93;2.50;;;16.90;18.50;;;;;;5048194;28;20436;-81
2022/04/11 12:56:49;;;;;;;4.07;2.80;;;16.70;18.30;;;;;;5040166;28;20532;-81
2022/04/11 12:59:31;;;;;;;2.20;2.00;;;16.50;18.10;;;;;;5039148;28;20446;-83
2022/04/11 13:02:04;;;;;;;2.30;1.97;;;16.70;18.30;;;;;;5040213;28;20491;-81
2022/04/11 13:04:32;;;;;;;3.37;2.70;;;16.90;18.40;;;;;;5041727;28;21002;-80
2022/04/11 13:06:59;;;;;;;3.53;2.70;;;16.90;18.40;;;;;;5040577;28;20565;-83
2022/04/11 13:09:26;;;;;;;3.30;2.43;;;16.90;18.40;;;;;;5044152;28;20507;-81
2022/04/11 13:11:55;;;;;;;2.43;2.23;;;17.20;18.60;;;;;;5051913;28;20427;-86
2022/04/11 13:14:22;;;;;;;3.30;2.50;;;17.10;18.60;;;;;;5062129;28;20449;-86